createdAt,value
2023-03-02T00:03:33.585Z,18.42
2023-03-02T00:08:37.022Z,19.33
2023-03-02T00:13:39.571Z,19.17
2023-03-02T00:18:41.808Z,18.70
2023-03-02T00:23:45.023Z,19.20
2023-03-02T00:28:47.294Z,17.75
2023-03-02T00:33:51.237Z,17.88
2023-03-02T00:38:53.683Z,18.45
2023-03-02T00:43:56.131Z,17.88
2023-03-02T00:48:58.357Z,17.80
2023-03-02T00:54:02.947Z,17.50
2023-03-02T00:59:06.666Z,17.05
2023-03-02T01:04:09.701Z,17.02
2023-03-02T01:09:12.557Z,17.50
2023-03-02T01:14:15.372Z,18.48
2023-03-02T01:19:18.752Z,17.77
2023-03-02T01:24:21.078Z,17.40
2023-03-02T01:29:23.338Z,17.38
2023-03-02T01:34:25.808Z,17.95
2023-03-02T01:39:28.279Z,17.27
2023-03-02T01:49:56.003Z,17.55
2023-03-02T01:55:06.146Z,17.85
2023-03-02T02:00:10.557Z,18.35
2023-03-02T02:05:22.517Z,17.00
2023-03-02T02:10:24.843Z,17.02
2023-03-02T02:15:27.421Z,17.38
2023-03-02T02:36:22.994Z,18.13
2023-03-02T02:41:29.729Z,17.35
2023-03-02T02:46:33.391Z,17.88
2023-03-02T02:51:35.948Z,19.45
2023-03-02T02:56:40.438Z,19.65
2023-03-02T03:01:47.769Z,19.52
2023-03-02T03:06:53.906Z,20.85
2023-03-02T03:12:03.245Z,20.70
2023-03-02T03:17:12.203Z,20.10
2023-03-02T03:22:18.597Z,20.27
2023-03-02T03:27:23.571Z,19.98
2023-03-02T03:32:26.020Z,20.77
2023-03-02T03:37:30.838Z,21.92
2023-03-02T03:42:33.411Z,21.73
2023-03-02T03:47:37.090Z,20.73
2023-03-02T03:52:41.396Z,21.38
2023-03-02T03:57:50.340Z,21.42
2023-03-02T04:02:53.031Z,20.80
2023-03-02T04:07:56.102Z,22.15
2023-03-02T04:12:58.840Z,21.60
2023-03-02T04:18:01.423Z,20.25
2023-03-02T04:23:03.952Z,21.75
2023-03-02T04:28:06.282Z,21.73
2023-03-02T04:33:12.524Z,22.27
2023-03-02T04:38:15.492Z,20.58
2023-03-02T04:43:18.545Z,20.95
2023-03-02T04:48:22.060Z,21.10
2023-03-02T04:53:24.283Z,20.63
2023-03-02T04:58:26.548Z,21.65
2023-03-02T05:03:29.051Z,21.58
2023-03-02T05:08:31.920Z,20.45
2023-03-02T05:13:34.939Z,20.63
2023-03-02T05:18:37.193Z,20.33
2023-03-02T05:23:39.448Z,20.60
2023-03-02T05:28:42.213Z,20.92
2023-03-02T05:33:44.984Z,21.88
2023-03-02T05:38:47.279Z,19.92
2023-03-02T05:43:49.495Z,20.38
2023-03-02T05:48:52.184Z,20.08
2023-03-02T05:53:54.740Z,22.20
2023-03-02T05:58:56.983Z,21.10
2023-03-02T06:03:59.228Z,22.40
2023-03-02T06:09:01.661Z,23.35
2023-03-02T06:14:03.960Z,22.50
2023-03-02T06:19:06.581Z,24.52
2023-03-02T06:24:09.118Z,23.55
2023-03-02T06:29:13.191Z,22.98
2023-03-02T06:34:16.453Z,24.27
2023-03-02T06:39:19.009Z,25.40
2023-03-02T06:44:21.310Z,24.58
2023-03-02T06:49:24.862Z,25.70
2023-03-02T06:54:27.177Z,25.75
2023-03-02T06:59:29.517Z,25.30
2023-03-02T07:04:31.760Z,25.58
2023-03-02T07:09:34.415Z,26.40
2023-03-02T07:14:36.821Z,27.33
2023-03-02T07:19:40.924Z,26.77
2023-03-02T07:24:44.961Z,27.13
2023-03-02T07:29:47.453Z,26.00
2023-03-02T07:34:49.903Z,30.48
2023-03-02T07:39:52.124Z,27.13
2023-03-02T07:44:54.404Z,26.63
2023-03-02T07:49:56.777Z,27.38
2023-03-02T07:54:59.224Z,27.95
2023-03-02T08:00:01.574Z,28.80
2023-03-02T08:05:15.827Z,29.77
2023-03-02T08:10:18.129Z,31.40
2023-03-02T08:15:20.415Z,28.58
2023-03-02T08:20:22.710Z,28.98
2023-03-02T08:25:25.289Z,28.30
2023-03-02T08:30:27.611Z,26.10
2023-03-02T08:35:29.972Z,26.02
2023-03-02T08:40:32.256Z,27.88
2023-03-02T08:45:35.032Z,27.65
2023-03-02T08:50:37.290Z,26.40
2023-03-02T08:55:39.693Z,30.65
2023-03-02T09:00:42.071Z,28.83
2023-03-02T09:05:44.635Z,29.70
2023-03-02T09:10:46.837Z,25.70
2023-03-02T09:15:49.068Z,27.58
2023-03-02T09:20:52.311Z,25.55
2023-03-02T09:25:55.349Z,25.73
2023-03-02T09:30:59.533Z,23.48
2023-03-02T09:36:06.236Z,22.95
2023-03-02T09:46:52.487Z,21.83
2023-03-02T09:52:28.963Z,20.85
2023-03-02T09:57:37.521Z,24.27
2023-03-02T10:03:11.346Z,22.48
2023-03-02T10:08:23.432Z,22.63
2023-03-02T10:13:44.982Z,22.60
2023-03-02T10:18:58.668Z,23.15
2023-03-02T10:24:28.656Z,22.50
2023-03-02T10:34:41.807Z,23.25
2023-03-02T10:39:44.286Z,25.13
2023-03-02T10:44:51.092Z,22.30
2023-03-02T10:49:57.086Z,24.10
2023-03-02T10:55:14.113Z,22.42
2023-03-02T11:05:30.890Z,27.05
2023-03-02T11:15:50.788Z,23.25
2023-03-02T11:20:59.644Z,23.52
2023-03-02T11:26:08.048Z,23.90
2023-03-02T11:31:21.552Z,22.75
2023-03-02T11:36:35.816Z,23.77
2023-03-02T11:41:38.288Z,24.67
2023-03-02T11:46:41.745Z,22.33
2023-03-02T11:51:58.263Z,24.77
2023-03-02T12:27:27.220Z,23.88
2023-03-02T12:54:06.173Z,22.27
2023-03-02T12:59:24.416Z,22.30
2023-03-02T13:04:27.378Z,28.15
2023-03-02T13:09:29.786Z,22.35
2023-03-02T13:14:32.303Z,24.20
2023-03-02T13:19:34.715Z,22.95
2023-03-02T13:30:13.107Z,24.20
2023-03-02T13:35:20.825Z,24.33
2023-03-02T13:45:33.489Z,23.30
2023-03-02T13:50:35.800Z,21.95
2023-03-02T13:55:40.376Z,23.55
2023-03-02T14:00:42.888Z,22.38
2023-03-02T14:05:45.201Z,20.23
2023-03-02T14:10:49.559Z,19.85
2023-03-02T14:15:53.689Z,19.60
2023-03-02T14:20:56.954Z,18.77
2023-03-02T14:25:59.448Z,19.50
2023-03-02T14:31:01.885Z,17.92
2023-03-02T14:36:06.188Z,17.63
2023-03-02T14:41:17.298Z,18.55
2023-03-02T14:46:19.703Z,19.20
2023-03-02T14:51:26.335Z,17.90
2023-03-02T14:56:29.262Z,17.85
2023-03-02T15:01:32.327Z,21.90
2023-03-02T15:06:39.148Z,27.98
2023-03-02T15:11:42.269Z,32.00
2023-03-02T15:16:45.539Z,23.38
2023-03-02T15:21:47.954Z,28.17
2023-03-02T15:26:51.157Z,34.60
2023-03-02T15:31:53.591Z,25.30
2023-03-02T15:36:55.961Z,22.75
2023-03-02T16:08:06.963Z,21.80
2023-03-02T16:13:35.276Z,35.30
2023-03-02T16:18:37.687Z,27.88
2023-03-02T16:23:39.938Z,20.50
2023-03-02T16:28:42.736Z,21.45
2023-03-02T16:49:14.316Z,23.60
2023-03-02T16:54:42.235Z,23.60
2023-03-02T16:59:44.686Z,27.35
2023-03-02T17:04:46.938Z,24.58
2023-03-02T17:09:49.202Z,23.67
2023-03-02T17:14:51.398Z,23.45
2023-03-02T17:19:53.683Z,26.45
2023-03-02T17:24:55.958Z,22.75
2023-03-02T17:29:58.277Z,24.40
2023-03-02T17:35:00.518Z,23.20
2023-03-02T17:40:02.936Z,21.77
2023-03-02T17:45:05.921Z,23.52
2023-03-02T18:04:49.191Z,25.70
2023-03-02T18:09:52.058Z,30.42
2023-03-02T18:14:54.267Z,25.27
2023-03-02T18:19:56.500Z,45.95
2023-03-02T18:24:58.795Z,21.55
2023-03-02T18:30:01.009Z,27.40
2023-03-02T18:35:03.356Z,24.73
2023-03-02T18:40:06.665Z,23.42
2023-03-02T18:45:09.826Z,27.05
2023-03-02T18:50:12.497Z,28.27
2023-03-02T18:55:15.575Z,24.80
2023-03-02T19:00:21.857Z,21.20
2023-03-02T19:05:27.157Z,20.98
2023-03-02T19:10:29.522Z,24.52
2023-03-02T19:15:34.838Z,28.05
2023-03-02T19:20:37.202Z,21.90
2023-03-02T19:25:40.058Z,34.97
